Time;durP1;ratioP1;P1;durP2;ratioP2;P2;SDS_P1;SDS_P2;PMS_P1;PMS_P2;Temp;Humidity;BMP_temperature;BMP_pressure;BME280_temperature;BME280_humidity;BME280_pressure;Samples;Min_cycle;Max_cycle;Signal;HPM_P1;HPM_P2
2024/03/01 00:00:38;;;;;;;43.70;24.73;;;4.50;28.40;;;;;;5031239;28;20682;-69
2024/03/01 00:03:05;;;;;;;38.93;20.73;;;4.60;29.70;;;;;;5030816;28;20524;-70
2024/03/01 00:05:31;;;;;;;42.43;23.53;;;4.60;28.10;;;;;;5031089;28;20217;-68
2024/03/01 00:07:57;;;;;;;44.03;23.07;;;4.70;27.20;;;;;;5031251;28;20969;-69
2024/03/01 00:10:24;;;;;;;36.70;24.23;;;4.70;26.80;;;;;;5035082;28;20410;-68
2024/03/01 00:12:50;;;;;;;38.43;22.10;;;4.70;26.80;;;;;;5034769;28;20618;-70
2024/03/01 00:15:16;;;;;;;33.70;21.30;;;4.70;25.90;;;;;;5034854;28;20453;-69
2024/03/01 00:17:42;;;;;;;38.93;21.30;;;4.70;26.70;;;;;;5034643;28;20424;-68
2024/03/01 00:20:08;;;;;;;36.67;21.27;;;4.70;26.00;;;;;;5035074;28;20409;-68
2024/03/01 00:22:34;;;;;;;34.00;20.47;;;4.70;26.90;;;;;;5034774;28;20545;-67
2024/03/01 00:24:59;;;;;;;32.37;20.70;;;4.80;26.30;;;;;;5034696;28;20501;-68
2024/03/01 00:27:25;;;;;;;31.37;22.47;;;4.80;25.30;;;;;;5035129;28;20572;-68
2024/03/01 00:29:50;;;;;;;33.93;21.20;;;4.70;25.80;;;;;;5034799;28;20774;-68
2024/03/01 00:32:16;;;;;;;36.03;22.20;;;4.70;26.20;;;;;;5034499;28;20241;-69
2024/03/01 00:34:41;;;;;;;42.97;25.30;;;4.70;26.10;;;;;;5034525;28;20210;-68
2024/03/01 00:37:07;;;;;;;36.57;20.37;;;4.70;26.30;;;;;;5034728;28;20257;-69
2024/03/01 00:39:32;;;;;;;44.10;20.90;;;4.60;26.20;;;;;;5034568;28;20333;-68
2024/03/01 00:41:58;;;;;;;39.23;21.90;;;4.60;26.70;;;;;;5034370;28;20183;-69
2024/03/01 00:44:23;;;;;;;38.90;22.57;;;4.60;26.30;;;;;;5016496;28;20572;-68
2024/03/01 00:46:49;;;;;;;37.67;21.30;;;4.50;27.40;;;;;;5035206;28;20181;-68
2024/03/01 00:49:15;;;;;;;32.73;21.07;;;4.50;27.20;;;;;;5018104;28;20212;-69
2024/03/01 00:51:41;;;;;;;36.73;21.90;;;4.40;27.50;;;;;;5035346;28;20217;-68
2024/03/01 00:54:06;;;;;;;44.80;23.83;;;4.30;28.30;;;;;;5034521;28;20465;-67
2024/03/01 00:56:32;;;;;;;41.07;22.90;;;4.30;27.90;;;;;;5034299;28;20257;-68
2024/03/01 00:58:57;;;;;;;43.07;24.07;;;4.30;27.90;;;;;;5034453;28;20190;-68
2024/03/01 01:01:23;;;;;;;34.50;20.20;;;4.30;28.70;;;;;;5034225;28;20181;-68
2024/03/01 01:03:48;;;;;;;44.60;26.00;;;4.30;31.20;;;;;;5034066;28;20197;-68
2024/03/01 01:06:14;;;;;;;43.17;22.73;;;4.40;29.40;;;;;;5034003;28;20566;-69
2024/03/01 01:08:39;;;;;;;36.03;21.47;;;4.50;28.70;;;;;;5034117;28;20662;-68
2024/03/01 01:11:05;;;;;;;36.50;22.13;;;4.50;28.90;;;;;;5033931;28;20235;-68
2024/03/01 01:13:30;;;;;;;35.73;24.03;;;4.60;28.10;;;;;;5033444;28;20253;-68
2024/03/01 01:15:56;;;;;;;38.90;21.53;;;4.50;26.90;;;;;;5033719;28;20203;-68
2024/03/01 01:18:22;;;;;;;36.60;21.40;;;4.60;26.50;;;;;;5034061;28;20175;-69
2024/03/01 01:20:48;;;;;;;41.97;23.00;;;4.50;27.30;;;;;;5032714;28;20614;-69
2024/03/01 01:23:14;;;;;;;36.97;22.57;;;4.50;27.30;;;;;;5033426;28;20487;-69
2024/03/01 01:25:41;;;;;;;38.60;22.50;;;4.50;26.20;;;;;;5033767;28;20244;-69
2024/03/01 01:28:07;;;;;;;39.87;22.67;;;4.50;27.20;;;;;;5033587;28;20194;-68
2024/03/01 01:30:33;;;;;;;44.20;25.63;;;4.60;27.80;;;;;;5033402;28;20424;-69
2024/03/01 01:32:58;;;;;;;34.97;21.77;;;4.50;26.70;;;;;;5033284;28;20199;-69
2024/03/01 01:35:24;;;;;;;43.93;21.70;;;4.60;27.00;;;;;;5033441;28;20759;-68
2024/03/01 01:37:49;;;;;;;37.73;22.17;;;4.60;26.80;;;;;;5033695;28;20250;-68
2024/03/01 01:40:15;;;;;;;38.47;21.67;;;4.60;27.40;;;;;;5033713;28;20261;-68
2024/03/01 01:42:40;;;;;;;43.00;25.57;;;4.60;26.60;;;;;;5033536;28;20678;-68
2024/03/01 01:45:06;;;;;;;41.23;22.33;;;4.50;26.00;;;;;;5033268;28;20186;-69
2024/03/01 01:47:33;;;;;;;36.80;22.80;;;4.50;27.90;;;;;;5033570;28;20211;-69
2024/03/01 01:49:59;;;;;;;37.57;22.60;;;4.50;26.90;;;;;;5033267;28;20422;-69
2024/03/01 01:52:27;;;;;;;30.80;21.30;;;4.60;26.00;;;;;;5033176;28;20847;-69
2024/03/01 01:54:53;;;;;;;29.23;20.07;;;4.50;26.70;;;;;;5032853;28;20422;-69
2024/03/01 01:57:18;;;;;;;40.63;22.13;;;4.60;25.80;;;;;;5033010;28;20452;-69
2024/03/01 01:59:46;;;;;;;34.27;20.80;;;4.50;26.00;;;;;;5013155;28;20461;-69
2024/03/01 02:02:12;;;;;;;34.57;22.57;;;4.50;26.50;;;;;;5031899;28;20205;-69
2024/03/01 02:04:39;;;;;;;36.97;23.50;;;4.50;26.10;;;;;;5014939;28;20426;-69
2024/03/01 02:07:05;;;;;;;43.53;23.13;;;4.40;26.70;;;;;;5032806;28;20429;-68
2024/03/01 02:09:31;;;;;;;37.93;21.90;;;4.40;28.00;;;;;;5032945;28;20418;-68
2024/03/01 02:11:56;;;;;;;32.30;22.13;;;4.30;27.90;;;;;;5032413;28;20392;-68
2024/03/01 02:14:22;;;;;;;42.73;23.50;;;4.30;28.00;;;;;;5032821;28;20206;-69
2024/03/01 02:16:47;;;;;;;35.33;20.63;;;4.40;28.90;;;;;;5032560;28;20666;-69
2024/03/01 02:19:15;;;;;;;33.47;20.33;;;4.30;27.90;;;;;;5032658;28;20643;-69
2024/03/01 02:22:02;;;;;;;36.73;23.87;;;4.30;29.00;;;;;;5032569;28;20559;-69
2024/03/01 02:24:28;;;;;;;43.80;24.10;;;4.30;28.70;;;;;;5012990;28;20429;-69
2024/03/01 02:26:55;;;;;;;31.17;22.10;;;4.30;28.20;;;;;;5012526;28;20430;-69
2024/03/01 02:29:20;;;;;;;45.87;24.30;;;4.20;29.20;;;;;;5012482;28;20442;-69
2024/03/01 02:31:46;;;;;;;40.83;22.33;;;4.20;29.60;;;;;;5012556;28;20496;-69
2024/03/01 02:34:11;;;;;;;34.50;22.43;;;4.10;30.50;;;;;;5014017;28;20196;-70
2024/03/01 02:36:37;;;;;;;35.60;23.63;;;4.10;32.20;;;;;;5032205;28;20209;-69
2024/03/01 02:39:03;;;;;;;42.57;25.70;;;4.20;32.30;;;;;;5031852;28;20244;-69
2024/03/01 02:41:28;;;;;;;41.47;23.97;;;4.10;32.30;;;;;;5031959;28;20196;-69
2024/03/01 02:43:54;;;;;;;38.10;21.80;;;4.10;32.70;;;;;;5031787;28;20289;-69
2024/03/01 02:46:22;;;;;;;39.90;23.73;;;4.20;33.10;;;;;;5031983;28;20186;-69
2024/03/01 02:48:47;;;;;;;39.83;24.13;;;4.20;33.00;;;;;;5031954;28;20610;-69
2024/03/01 02:51:13;;;;;;;35.23;20.57;;;4.20;32.30;;;;;;5031965;28;20446;-69
2024/03/01 02:53:38;;;;;;;38.03;23.43;;;4.30;32.70;;;;;;5031570;28;20205;-69
2024/03/01 02:56:04;;;;;;;39.33;23.30;;;4.40;32.50;;;;;;5032294;28;20289;-69
2024/03/01 02:58:30;;;;;;;42.27;23.57;;;4.40;31.40;;;;;;5032419;28;20713;-69
2024/03/01 03:00:55;;;;;;;36.93;22.30;;;4.40;30.40;;;;;;5032077;28;20181;-69
2024/03/01 03:03:21;;;;;;;34.93;22.07;;;4.40;30.80;;;;;;5031434;28;20201;-69
2024/03/01 03:05:46;;;;;;;44.30;24.53;;;4.50;30.00;;;;;;5031675;28;20190;-69
2024/03/01 03:08:12;;;;;;;41.13;25.33;;;4.50;29.50;;;;;;5014014;28;20230;-69
2024/03/01 03:10:38;;;;;;;50.10;26.10;;;4.50;29.10;;;;;;5031355;28;20190;-68
2024/03/01 03:13:05;;;;;;;40.40;24.17;;;4.50;29.70;;;;;;5054423;22;20249;-69
2024/03/01 03:15:31;;;;;;;36.70;22.60;;;4.50;28.10;;;;;;5030976;28;20704;-70
2024/03/01 03:17:57;;;;;;;32.67;22.20;;;4.50;28.80;;;;;;5031164;28;20453;-68
2024/03/01 03:20:22;;;;;;;37.57;23.00;;;4.50;29.50;;;;;;5031324;28;20554;-69
2024/03/01 03:22:48;;;;;;;38.43;24.27;;;4.40;29.10;;;;;;5031330;28;20199;-69
2024/03/01 03:25:13;;;;;;;32.20;22.93;;;4.50;29.70;;;;;;5031139;28;20187;-68
2024/03/01 03:27:40;;;;;;;35.53;21.77;;;4.40;29.80;;;;;;5030983;28;20186;-68
2024/03/01 03:30:06;;;;;;;37.17;21.43;;;4.50;29.30;;;;;;5031073;28;20578;-68
2024/03/01 03:32:33;;;;;;;39.53;23.47;;;4.50;29.10;;;;;;5031107;28;20445;-68
2024/03/01 03:34:59;;;;;;;38.30;21.70;;;4.50;29.00;;;;;;5030941;28;20486;-69
2024/03/01 03:37:25;;;;;;;38.33;21.83;;;4.50;28.50;;;;;;5030751;28;20890;-68
2024/03/01 03:39:51;;;;;;;43.20;22.60;;;4.60;28.40;;;;;;5030973;28;20193;-69
2024/03/01 03:42:16;;;;;;;38.70;21.53;;;4.60;29.10;;;;;;5013013;28;20741;-68
2024/03/01 03:44:42;;;;;;;35.90;21.10;;;4.60;28.90;;;;;;5018826;28;20210;-68
2024/03/01 03:47:07;;;;;;;34.50;21.47;;;4.60;28.10;;;;;;5019247;28;20196;-69
2024/03/01 03:49:33;;;;;;;37.00;23.40;;;4.60;28.10;;;;;;5037520;28;20182;-69
2024/03/01 03:51:59;;;;;;;33.23;19.90;;;4.60;28.20;;;;;;5019661;28;20659;-69
2024/03/01 03:54:24;;;;;;;34.97;20.83;;;4.60;28.10;;;;;;5037121;28;20520;-68
2024/03/01 03:56:50;;;;;;;33.33;22.03;;;4.60;27.90;;;;;;5019344;28;20302;-68
2024/03/01 03:59:15;;;;;;;35.47;19.30;;;4.60;27.20;;;;;;5037015;28;20584;-67
2024/03/01 04:01:41;;;;;;;37.20;19.90;;;4.60;28.10;;;;;;5037102;28;20642;-67
2024/03/01 04:04:07;;;;;;;35.23;20.07;;;4.50;28.10;;;;;;5036839;28;20203;-67
2024/03/01 04:06:32;;;;;;;33.23;20.30;;;4.60;28.10;;;;;;5037287;28;20189;-68
2024/03/01 04:08:58;;;;;;;33.33;21.73;;;4.50;28.10;;;;;;5037176;28;20179;-68
2024/03/01 04:11:23;;;;;;;35.53;20.83;;;4.50;28.20;;;;;;5036789;28;20203;-68
2024/03/01 04:13:49;;;;;;;39.10;20.87;;;4.60;29.00;;;;;;5036448;28;20750;-68
2024/03/01 04:16:14;;;;;;;34.37;20.67;;;4.50;29.00;;;;;;5036938;28;20214;-68
2024/03/01 04:18:41;;;;;;;33.07;21.00;;;4.60;28.80;;;;;;5036889;28;20186;-68
2024/03/01 04:21:07;;;;;;;38.50;21.97;;;4.60;28.50;;;;;;5037055;28;20669;-68
2024/03/01 04:23:32;;;;;;;43.13;20.33;;;4.60;28.90;;;;;;5036349;28;20472;-68
2024/03/01 04:25:58;;;;;;;37.07;21.00;;;4.70;28.80;;;;;;5036784;28;20429;-68
2024/03/01 04:28:28;;;;;;;40.90;23.50;;;4.70;28.80;;;;;;5018965;28;20190;-69
2024/03/01 04:30:54;;;;;;;32.93;20.47;;;4.70;28.20;;;;;;5036742;28;20483;-67
2024/03/01 04:33:20;;;;;;;36.43;20.83;;;4.80;28.30;;;;;;5018632;28;20441;-70
2024/03/01 04:35:46;;;;;;;37.63;19.63;;;4.80;28.30;;;;;;5036841;28;20468;-68
2024/03/01 04:38:12;;;;;;;41.90;19.20;;;4.80;28.20;;;;;;5036781;28;20437;-68
2024/03/01 04:40:38;;;;;;;34.00;18.13;;;4.80;28.20;;;;;;5037010;28;20828;-68
2024/03/01 04:43:07;;;;;;;40.73;22.60;;;4.80;28.30;;;;;;5036511;28;20524;-68
2024/03/01 04:45:33;;;;;;;32.67;17.90;;;4.80;28.30;;;;;;5037078;28;20665;-69
2024/03/01 04:47:59;;;;;;;37.17;22.40;;;4.80;28.30;;;;;;5019275;28;20574;-69
2024/03/01 04:50:26;;;;;;;32.10;20.33;;;4.80;28.20;;;;;;5018960;28;20500;-69
2024/03/01 04:52:51;;;;;;;31.70;19.00;;;4.80;28.30;;;;;;5036750;28;20290;-70
2024/03/01 04:55:17;;;;;;;31.90;20.17;;;4.90;28.30;;;;;;5034764;28;20615;-68
2024/03/01 04:57:43;;;;;;;36.83;21.40;;;4.90;28.70;;;;;;5033540;28;20255;-68
2024/03/01 05:00:12;;;;;;;34.63;20.87;;;4.90;28.60;;;;;;5034102;28;20420;-69
2024/03/01 05:02:41;;;;;;;32.03;21.13;;;4.90;28.80;;;;;;5033625;28;20206;-69
2024/03/01 05:05:11;;;;;;;33.60;20.37;;;5.00;29.20;;;;;;5033446;28;20422;-69
2024/03/01 05:07:37;;;;;;;35.83;22.07;;;5.00;28.40;;;;;;5015957;28;20465;-68
2024/03/01 05:10:08;;;;;;;30.93;18.67;;;5.00;28.90;;;;;;5015512;28;20896;-68
2024/03/01 05:12:38;;;;;;;32.30;18.07;;;5.10;28.40;;;;;;5015496;28;20461;-68
2024/03/01 05:15:05;;;;;;;35.23;20.73;;;5.20;29.20;;;;;;5033071;28;20414;-68
2024/03/01 05:17:40;;;;;;;35.87;21.93;;;5.20;28.50;;;;;;5015448;28;20426;-69
2024/03/01 05:20:10;;;;;;;37.83;21.30;;;5.40;27.90;;;;;;5033623;28;20417;-68
2024/03/01 05:22:37;;;;;;;33.00;21.70;;;5.50;26.90;;;;;;5015224;28;20964;-67
2024/03/01 05:25:14;;;;;;;42.67;22.10;;;5.50;26.20;;;;;;5033346;28;20982;-68
2024/03/01 05:27:50;;;;;;;33.60;20.63;;;5.60;25.70;;;;;;5033250;28;20426;-68
2024/03/01 05:30:20;;;;;;;34.97;19.87;;;5.70;25.80;;;;;;5033341;28;20414;-69
2024/03/01 05:32:47;;;;;;;34.37;19.00;;;5.80;24.50;;;;;;5033148;28;20457;-68
2024/03/01 05:35:14;;;;;;;27.27;19.17;;;5.80;23.70;;;;;;5032695;28;20457;-67
2024/03/01 05:37:41;;;;;;;34.07;19.30;;;5.80;23.30;;;;;;5033019;28;20781;-68
2024/03/01 05:40:10;;;;;;;29.87;18.27;;;5.90;22.90;;;;;;5032782;28;20414;-67
2024/03/01 05:42:40;;;;;;;32.73;19.63;;;6.00;22.20;;;;;;5015037;28;20504;-68
2024/03/01 05:45:07;;;;;;;37.93;21.90;;;6.00;22.40;;;;;;5032757;28;20422;-69
2024/03/01 05:47:37;;;;;;;34.60;22.77;;;6.00;22.70;;;;;;5033152;28;20487;-69
2024/03/01 05:50:05;;;;;;;35.83;17.80;;;6.00;22.70;;;;;;5033057;28;20450;-69
2024/03/01 05:52:35;;;;;;;29.23;18.57;;;6.00;22.80;;;;;;5014824;28;20533;-68
2024/03/01 05:55:03;;;;;;;29.53;18.87;;;6.10;22.90;;;;;;5032582;28;20514;-68
2024/03/01 05:57:30;;;;;;;29.53;21.10;;;6.10;23.40;;;;;;5015038;28;20509;-70
2024/03/01 05:59:56;;;;;;;34.30;20.60;;;6.20;22.60;;;;;;5015313;28;20414;-69
2024/03/01 06:02:22;;;;;;;30.90;19.73;;;6.20;23.20;;;;;;5032715;28;20421;-70
2024/03/01 06:04:48;;;;;;;37.63;21.10;;;6.20;23.50;;;;;;5032263;28;20449;-69
2024/03/01 06:07:15;;;;;;;38.73;20.70;;;6.20;23.70;;;;;;5032498;28;20447;-70
2024/03/01 06:09:40;;;;;;;29.77;21.13;;;6.20;23.60;;;;;;5033248;28;20410;-69
2024/03/01 06:12:06;;;;;;;32.27;19.87;;;6.20;24.10;;;;;;5032959;28;20467;-70
2024/03/01 06:14:32;;;;;;;32.40;21.37;;;6.10;23.80;;;;;;5032765;28;20259;-71
2024/03/01 06:16:57;;;;;;;34.00;19.70;;;6.10;24.20;;;;;;5032848;28;20211;-69
2024/03/01 06:19:23;;;;;;;31.00;19.13;;;6.20;23.70;;;;;;5032984;28;20192;-68
2024/03/01 06:21:48;;;;;;;36.60;21.03;;;6.20;24.20;;;;;;5032243;28;20647;-69
2024/03/01 06:24:14;;;;;;;36.00;21.33;;;6.20;23.80;;;;;;5031868;28;20203;-68
2024/03/01 06:26:40;;;;;;;34.57;20.13;;;6.30;23.90;;;;;;5032384;28;20194;-70
2024/03/01 06:29:05;;;;;;;37.10;23.23;;;6.30;23.50;;;;;;5032356;28;20191;-69
2024/03/01 06:31:31;;;;;;;33.00;20.80;;;6.40;23.40;;;;;;5032354;28;20259;-67
2024/03/01 06:33:56;;;;;;;30.90;20.03;;;6.40;23.10;;;;;;5032030;28;20203;-69
2024/03/01 06:36:22;;;;;;;27.17;16.80;;;6.50;23.30;;;;;;5032495;28;20203;-69
2024/03/01 06:38:47;;;;;;;36.63;21.03;;;6.50;22.90;;;;;;5032028;28;20238;-69
2024/03/01 06:41:13;;;;;;;33.83;20.13;;;6.50;22.80;;;;;;5031609;28;20642;-69
2024/03/01 06:43:39;;;;;;;32.27;19.03;;;6.60;21.60;;;;;;5031698;28;20300;-70
2024/03/01 06:46:06;;;;;;;34.13;21.80;;;6.70;21.20;;;;;;5032084;28;20187;-69
2024/03/01 06:48:35;;;;;;;31.67;18.93;;;6.70;19.80;;;;;;5032046;28;20173;-69
2024/03/01 06:51:01;;;;;;;34.20;20.07;;;6.80;19.30;;;;;;5031501;28;20949;-69
2024/03/01 06:53:27;;;;;;;30.43;21.03;;;6.80;19.40;;;;;;5031693;28;20456;-69
2024/03/01 06:55:52;;;;;;;37.57;20.63;;;6.90;19.30;;;;;;5013764;28;20214;-69
2024/03/01 06:58:18;;;;;;;32.97;19.87;;;6.90;19.20;;;;;;5031670;28;20506;-69
2024/03/01 07:00:46;;;;;;;35.10;23.50;;;7.00;19.30;;;;;;5031492;28;20700;-70
2024/03/01 07:03:13;;;;;;;32.03;19.33;;;7.00;18.50;;;;;;5031072;28;20558;-69
2024/03/01 07:05:39;;;;;;;36.03;20.67;;;7.20;18.10;;;;;;5031222;28;20794;-70
2024/03/01 07:08:05;;;;;;;33.30;19.80;;;7.20;16.80;;;;;;5031273;28;20415;-68
2024/03/01 07:10:31;;;;;;;33.00;20.67;;;7.20;17.30;;;;;;5031489;28;20534;-70
2024/03/01 07:12:56;;;;;;;32.63;19.53;;;7.30;17.60;;;;;;5030890;28;20557;-69
2024/03/01 07:15:22;;;;;;;35.40;21.13;;;7.40;16.00;;;;;;5030930;28;20273;-69
2024/03/01 07:17:47;;;;;;;35.90;19.80;;;7.40;16.30;;;;;;5030279;28;20185;-69
2024/03/01 07:20:13;;;;;;;33.13;19.93;;;7.40;17.00;;;;;;5031160;28;20486;-70
2024/03/01 07:22:39;;;;;;;35.27;20.90;;;7.40;16.00;;;;;;5030634;28;20192;-68
2024/03/01 07:25:05;;;;;;;34.10;21.60;;;7.40;16.70;;;;;;5030744;28;20171;-69
2024/03/01 07:27:35;;;;;;;32.43;19.20;;;7.50;15.50;;;;;;5030608;28;20457;-70
2024/03/01 07:30:01;;;;;;;32.80;19.03;;;7.60;15.90;;;;;;5030533;28;20506;-69
2024/03/01 07:32:27;;;;;;;29.60;19.03;;;7.70;14.30;;;;;;5030409;28;20445;-69
2024/03/01 07:34:52;;;;;;;27.50;17.70;;;7.70;15.10;;;;;;5012633;28;20942;-70
2024/03/01 07:37:18;;;;;;;29.13;19.10;;;7.90;14.20;;;;;;5029775;28;20221;-69
2024/03/01 07:39:43;;;;;;;28.80;20.03;;;8.00;13.30;;;;;;5030957;28;20181;-69
2024/03/01 07:42:09;;;;;;;28.80;19.00;;;8.10;12.90;;;;;;5031040;28;20179;-69
2024/03/01 07:44:34;;;;;;;31.43;18.03;;;8.20;11.50;;;;;;5030754;28;20182;-69
2024/03/01 07:47:03;;;;;;;31.17;18.00;;;8.10;12.00;;;;;;5031037;28;20190;-69
2024/03/01 07:49:29;;;;;;;31.17;20.13;;;8.20;11.10;;;;;;5031028;28;20257;-68
2024/03/01 07:51:56;;;;;;;30.50;19.10;;;8.20;11.50;;;;;;5012840;28;20572;-71
2024/03/01 07:54:21;;;;;;;33.03;18.30;;;8.30;11.30;;;;;;5030449;28;20216;-71
2024/03/01 07:56:47;;;;;;;30.80;19.87;;;8.30;10.40;;;;;;5012865;28;20834;-68
2024/03/01 07:59:12;;;;;;;28.37;19.43;;;8.30;11.20;;;;;;5030580;28;20189;-69
2024/03/01 08:01:38;;;;;;;38.10;22.60;;;8.40;10.40;;;;;;5030572;28;20531;-68
2024/03/01 08:04:04;;;;;;;27.00;18.37;;;8.30;10.80;;;;;;5030565;28;20202;-69
2024/03/01 08:06:30;;;;;;;31.13;19.80;;;8.30;10.90;;;;;;5012666;28;20214;-69
2024/03/01 08:08:56;;;;;;;27.17;17.97;;;8.40;10.40;;;;;;5030719;28;20428;-69
2024/03/01 08:11:40;;;;;;;34.80;18.03;;;8.40;9.40;;;;;;5030516;28;20422;-69
2024/03/01 08:14:10;;;;;;;30.20;20.17;;;8.40;10.40;;;;;;5027564;28;20706;-70
2024/03/01 08:16:36;;;;;;;28.33;17.97;;;8.50;9.20;;;;;;5029503;28;20871;-69
2024/03/01 08:19:02;;;;;;;30.80;19.90;;;8.40;8.70;;;;;;5030519;28;20413;-70
2024/03/01 08:21:28;;;;;;;25.40;17.73;;;8.40;8.60;;;;;;5013159;28;20516;-71
2024/03/01 08:23:54;;;;;;;26.47;18.37;;;8.60;7.80;;;;;;5030768;28;20488;-70
2024/03/01 08:26:23;;;;;;;28.93;16.60;;;8.60;8.10;;;;;;5022208;28;20488;-70
2024/03/01 08:28:49;;;;;;;26.90;16.77;;;8.60;8.70;;;;;;5021414;28;20666;-69
2024/03/01 08:31:26;;;;;;;35.73;20.97;;;8.80;7.90;;;;;;5016564;28;20443;-72
2024/03/01 08:34:06;;;;;;;30.43;18.47;;;8.80;7.60;;;;;;5021059;28;20913;-69
2024/03/01 08:36:32;;;;;;;28.00;18.67;;;8.80;7.90;;;;;;5029349;28;20476;-69
2024/03/01 08:38:59;;;;;;;26.00;18.87;;;8.80;8.30;;;;;;5034070;28;20432;-69
2024/03/01 08:41:26;;;;;;;23.80;17.70;;;9.00;8.40;;;;;;5024436;28;20430;-70
2024/03/01 08:43:53;;;;;;;28.70;18.37;;;9.10;8.20;;;;;;5013991;28;20811;-69
2024/03/01 08:46:31;;;;;;;29.57;18.63;;;9.30;7.30;;;;;;5023389;28;20480;-70
2024/03/01 08:48:59;;;;;;;31.23;20.07;;;9.30;7.40;;;;;;5030466;28;20435;-69
2024/03/01 08:51:26;;;;;;;27.50;18.03;;;9.30;7.80;;;;;;5030721;28;20998;-68
2024/03/01 08:54:01;;;;;;;26.30;17.57;;;9.30;8.70;;;;;;5030206;28;21181;-70
2024/03/01 08:56:33;;;;;;;31.40;19.67;;;9.30;10.00;;;;;;5012292;28;20739;-69
2024/03/01 08:59:00;;;;;;;29.67;18.83;;;9.20;9.60;;;;;;5030110;28;20517;-69
2024/03/01 09:01:43;;;;;;;23.70;17.13;;;9.20;11.10;;;;;;5029731;28;20431;-68
2024/03/01 09:04:31;;;;;;;25.57;18.10;;;9.30;10.70;;;;;;5011398;28;20453;-69
2024/03/01 09:07:12;;;;;;;27.53;17.90;;;9.40;11.10;;;;;;5030502;28;21029;-69
2024/03/01 09:09:39;;;;;;;32.50;19.27;;;9.70;11.70;;;;;;5030196;28;20437;-69
2024/03/01 09:12:17;;;;;;;25.37;18.23;;;9.80;10.90;;;;;;5012063;28;20798;-68
2024/03/01 09:14:43;;;;;;;26.23;16.77;;;10.00;9.70;;;;;;5071394;22;20516;-68
2024/03/01 09:17:12;;;;;;;31.50;18.33;;;10.20;9.20;;;;;;5035105;28;20531;-68
2024/03/01 09:19:45;;;;;;;31.70;18.73;;;10.50;7.60;;;;;;5049775;28;20504;-68
2024/03/01 09:22:17;;;;;;;31.03;19.60;;;10.70;6.60;;;;;;5050191;28;20739;-69
2024/03/01 09:24:44;;;;;;;24.13;17.00;;;10.80;6.50;;;;;;5050172;28;20815;-69
2024/03/01 09:27:30;;;;;;;22.93;15.40;;;10.90;4.90;;;;;;5049706;28;20428;-67
2024/03/01 09:29:58;;;;;;;27.20;16.90;;;11.00;5.90;;;;;;5030249;28;21008;-68
2024/03/01 09:32:23;;;;;;;21.13;15.97;;;10.90;5.00;;;;;;5029758;28;20960;-68
2024/03/01 09:34:49;;;;;;;26.50;16.80;;;11.10;4.90;;;;;;5035003;28;20425;-67
2024/03/01 09:37:22;;;;;;;24.50;16.30;;;11.20;4.50;;;;;;5050022;28;20293;-69
2024/03/01 09:39:48;;;;;;;23.17;16.03;;;11.40;3.30;;;;;;5028400;28;20457;-69
2024/03/01 09:42:32;;;;;;;20.53;14.73;;;11.50;2.70;;;;;;5028456;28;20430;-70
2024/03/01 09:45:19;;;;;;;20.23;14.17;;;11.70;1.80;;;;;;5029739;28;20575;-69
2024/03/01 09:48:12;;;;;;;22.00;14.57;;;11.60;2.00;;;;;;5029816;28;20426;-66
2024/03/01 09:50:58;;;;;;;17.10;12.50;;;11.70;1.80;;;;;;5029257;28;20418;-67
2024/03/01 09:53:58;;;;;;;16.97;13.03;;;11.80;1.40;;;;;;5028298;28;20495;-67
2024/03/01 09:56:49;;;;;;;20.73;13.53;;;11.80;1.00;;;;;;5016441;28;20479;-68
2024/03/01 09:59:32;;;;;;;22.40;14.30;;;11.80;1.00;;;;;;5031261;28;20533;-67
2024/03/01 10:02:25;;;;;;;18.13;12.07;;;11.70;1.80;;;;;;5049196;28;20923;-67
2024/03/01 10:05:37;;;;;;;21.50;12.40;;;11.80;1.00;;;;;;5041113;28;20434;-67
2024/03/01 10:08:02;;;;;;;16.03;11.20;;;11.80;1.00;;;;;;5028049;28;20882;-68
2024/03/01 10:10:42;;;;;;;20.13;12.87;;;12.10;1.00;;;;;;5049769;28;20506;-68
2024/03/01 10:13:33;;;;;;;16.50;12.13;;;12.20;1.00;;;;;;5052607;28;20299;-68
2024/03/01 10:16:17;;;;;;;14.30;9.90;;;12.10;1.00;;;;;;5046648;28;20460;-68
2024/03/01 10:19:06;;;;;;;12.23;9.47;;;12.00;1.00;;;;;;5048638;28;20510;-69
2024/03/01 10:21:41;;;;;;;19.20;11.03;;;12.10;1.00;;;;;;5052607;28;20461;-68
2024/03/01 10:24:19;;;;;;;15.63;10.10;;;12.10;1.00;;;;;;5052458;28;20612;-69
2024/03/01 10:26:53;;;;;;;15.37;9.93;;;12.20;1.00;;;;;;5052383;28;20413;-69
2024/03/01 10:29:32;;;;;;;17.80;10.10;;;12.20;1.00;;;;;;5036519;28;20431;-69
2024/03/01 10:32:28;;;;;;;12.90;8.93;;;12.20;1.00;;;;;;5032469;28;20424;-69
2024/03/01 10:35:06;;;;;;;15.47;10.00;;;12.10;1.00;;;;;;5032305;28;20921;-70
2024/03/01 10:37:49;;;;;;;16.40;10.70;;;12.20;1.00;;;;;;5032611;28;20413;-69
2024/03/01 10:40:19;;;;;;;15.20;8.73;;;12.30;1.00;;;;;;5040826;28;20966;-69
2024/03/01 10:42:51;;;;;;;14.83;10.60;;;12.40;1.00;;;;;;5052135;28;20401;-69
2024/03/01 10:45:25;;;;;;;11.83;8.47;;;12.60;1.00;;;;;;5052237;28;20408;-70
2024/03/01 10:47:51;;;;;;;12.70;8.53;;;12.60;1.00;;;;;;5051549;28;20799;-69
2024/03/01 10:50:21;;;;;;;13.60;10.40;;;12.70;1.00;;;;;;5046460;28;20440;-70
2024/03/01 10:53:18;;;;;;;10.03;7.30;;;12.80;1.00;;;;;;5043305;28;20329;-70
2024/03/01 10:55:53;;;;;;;12.47;8.93;;;12.90;1.00;;;;;;5052112;28;20461;-69
2024/03/01 10:58:50;;;;;;;11.80;7.43;;;13.10;1.00;;;;;;5034302;28;20475;-69
2024/03/01 11:01:27;;;;;;;11.93;7.40;;;12.90;1.00;;;;;;5052003;28;20923;-69
2024/03/01 11:04:10;;;;;;;11.60;8.40;;;13.30;1.00;;;;;;5051520;28;20808;-69
2024/03/01 11:06:45;;;;;;;13.17;8.57;;;13.60;1.00;;;;;;5052150;28;20413;-69
2024/03/01 11:09:21;;;;;;;10.13;7.30;;;13.50;1.00;;;;;;5051856;28;20914;-69
2024/03/01 11:11:55;;;;;;;12.20;8.97;;;13.60;1.00;;;;;;5051586;28;20418;-69
2024/03/01 11:14:23;;;;;;;12.20;7.93;;;13.50;1.00;;;;;;5051175;28;20451;-69
2024/03/01 11:16:58;;;;;;;13.53;8.53;;;13.40;1.00;;;;;;5038605;28;20580;-69
2024/03/01 11:19:27;;;;;;;12.23;6.93;;;13.40;1.00;;;;;;5051661;28;20432;-68
2024/03/01 11:22:17;;;;;;;10.80;8.20;;;13.40;1.00;;;;;;5052084;28;20422;-71
2024/03/01 11:24:59;;;;;;;12.33;8.87;;;13.60;1.00;;;;;;5051116;28;20495;-70
2024/03/01 11:27:28;;;;;;;11.30;6.53;;;13.20;1.00;;;;;;5051378;28;20942;-69
2024/03/01 11:30:05;;;;;;;10.33;5.57;;;12.90;1.00;;;;;;5031715;28;20440;-69
2024/03/01 11:32:35;;;;;;;10.07;6.73;;;13.00;1.00;;;;;;5031711;28;20421;-67
2024/03/01 11:35:08;;;;;;;9.87;5.80;;;12.80;1.00;;;;;;5038214;28;20435;-69
2024/03/01 11:38:10;;;;;;;6.57;5.37;;;12.60;1.00;;;;;;5048482;28;20419;-68
2024/03/01 11:40:41;;;;;;;7.90;5.60;;;12.70;1.00;;;;;;5033357;28;20427;-69
2024/03/01 11:43:19;;;;;;;11.33;4.70;;;12.70;1.00;;;;;;5035986;28;20453;-69
2024/03/01 11:46:19;;;;;;;7.50;4.50;;;12.80;1.00;;;;;;5031607;28;20883;-69
2024/03/01 11:49:00;;;;;;;7.60;5.50;;;12.60;1.00;;;;;;5013921;28;20414;-68
2024/03/01 11:51:43;;;;;;;6.13;4.50;;;12.90;1.00;;;;;;5014928;28;20923;-69
2024/03/01 11:55:03;;;;;;;9.43;4.90;;;13.10;1.00;;;;;;5033108;28;20441;-69
2024/03/01 11:57:51;;;;;;;7.67;4.47;;;13.10;1.00;;;;;;5051675;28;20447;-70
2024/03/01 12:00:41;;;;;;;7.20;4.00;;;13.10;1.00;;;;;;5051107;28;20440;-70
2024/03/01 12:03:34;;;;;;;5.80;3.87;;;13.40;1.00;;;;;;5050868;28;20943;-68
2024/03/01 12:06:37;;;;;;;6.40;3.97;;;13.60;1.00;;;;;;5017087;28;20963;-68
2024/03/01 12:09:17;;;;;;;6.13;3.43;;;13.40;1.00;;;;;;5017995;28;20448;-69
2024/03/01 12:11:55;;;;;;;4.97;3.60;;;13.30;1.00;;;;;;5036318;28;20831;-68
2024/03/01 12:14:34;;;;;;;7.60;3.80;;;13.30;1.00;;;;;;5034801;28;20457;-69
2024/03/01 12:17:35;;;;;;;6.63;3.77;;;13.10;1.00;;;;;;5037072;28;20888;-70
2024/03/01 12:20:06;;;;;;;7.13;3.90;;;12.90;1.00;;;;;;5054678;28;20515;-68
2024/03/01 12:22:59;;;;;;;6.63;4.30;;;12.70;1.00;;;;;;5055455;28;20845;-69
2024/03/01 12:25:26;;;;;;;7.13;4.23;;;12.60;1.00;;;;;;5050606;28;20858;-69
2024/03/01 12:28:13;;;;;;;7.33;4.77;;;12.60;1.00;;;;;;5036652;28;20520;-69
2024/03/01 12:30:45;;;;;;;5.97;4.27;;;12.60;1.00;;;;;;5049033;28;20423;-69
2024/03/01 12:33:26;;;;;;;5.30;3.53;;;12.30;1.00;;;;;;5054424;28;20961;-69
2024/03/01 12:36:07;;;;;;;5.23;3.50;;;11.80;1.00;;;;;;5054448;28;20465;-69
2024/03/01 12:39:11;;;;;;;5.80;3.80;;;11.90;1.00;;;;;;5054346;28;20978;-69
2024/03/01 12:42:05;;;;;;;6.40;5.00;;;12.00;1.00;;;;;;5053725;28;20452;-70
2024/03/01 12:44:49;;;;;;;8.10;5.20;;;11.80;1.00;;;;;;5047514;28;20429;-69
2024/03/01 12:47:43;;;;;;;7.53;4.90;;;11.90;1.00;;;;;;5054237;28;20424;-69
2024/03/01 12:50:20;;;;;;;7.37;4.87;;;12.40;1.00;;;;;;5054172;28;20467;-70
2024/03/01 12:53:11;;;;;;;6.73;3.53;;;12.50;1.00;;;;;;5036112;28;20790;-69
2024/03/01 12:56:04;;;;;;;5.70;4.60;;;12.80;1.00;;;;;;5054148;28;20458;-68
2024/03/01 12:59:17;;;;;;;5.40;4.40;;;12.90;1.00;;;;;;5054260;28;20399;-69